createdAt,value
2018-05-13T00:02:19.419Z,15.20
2018-05-13T00:04:47.524Z,15.10
2018-05-13T00:07:15.637Z,15.10
2018-05-13T00:09:44.566Z,15.00
2018-05-13T00:12:12.724Z,14.90
2018-05-13T00:14:40.981Z,14.90
2018-05-13T00:17:09.248Z,14.80
2018-05-13T00:19:37.484Z,14.80
2018-05-13T00:22:05.724Z,14.80
2018-05-13T00:24:34.998Z,14.70
2018-05-13T00:27:03.223Z,14.70
2018-05-13T00:29:31.499Z,14.70
2018-05-13T00:31:59.697Z,14.60
2018-05-13T00:34:27.921Z,14.50
2018-05-13T00:36:56.801Z,14.50
2018-05-13T00:39:24.944Z,14.40
2018-05-13T00:41:53.043Z,14.40
2018-05-13T00:44:21.206Z,14.40
2018-05-13T00:46:49.319Z,14.30
2018-05-13T00:49:17.421Z,14.20
2018-05-13T00:51:45.869Z,14.20
2018-05-13T00:54:31.737Z,14.10
2018-05-13T00:56:59.857Z,14.00
2018-05-13T00:59:28.023Z,14.00
2018-05-13T01:01:56.937Z,13.90
2018-05-13T01:04:25.837Z,13.80
2018-05-13T01:06:53.937Z,13.80
2018-05-13T01:09:22.343Z,13.80
2018-05-13T01:11:50.438Z,13.80
2018-05-13T01:14:18.553Z,13.70
2018-05-13T01:16:46.887Z,13.70
2018-05-13T01:19:15.022Z,13.60
2018-05-13T01:21:43.195Z,13.60
2018-05-13T01:24:11.409Z,13.50
2018-05-13T01:26:39.724Z,13.50
2018-05-13T01:29:07.921Z,13.50
2018-05-13T01:31:36.140Z,13.40
2018-05-13T01:34:04.272Z,13.40
2018-05-13T01:36:32.372Z,13.40
2018-05-13T01:39:00.519Z,13.30
2018-05-13T01:41:29.177Z,13.30
2018-05-13T01:43:57.278Z,13.20
2018-05-13T01:46:25.396Z,13.20
2018-05-13T01:48:53.523Z,13.20
2018-05-13T01:51:21.619Z,13.10
2018-05-13T01:53:49.729Z,13.10
2018-05-13T01:56:17.839Z,13.10
2018-05-13T01:58:45.943Z,13.00
2018-05-13T02:01:14.139Z,13.00
2018-05-13T02:03:42.436Z,12.90
2018-05-13T02:06:10.555Z,12.90
2018-05-13T02:08:38.807Z,12.90
2018-05-13T02:11:06.915Z,12.80
2018-05-13T02:13:35.035Z,12.80
2018-05-13T02:16:03.721Z,12.80
2018-05-13T02:18:31.845Z,12.70
2018-05-13T02:20:59.945Z,12.70
2018-05-13T02:23:28.061Z,12.70
2018-05-13T02:25:56.209Z,12.70
2018-05-13T02:28:24.307Z,12.70
2018-05-13T02:30:52.469Z,12.70
2018-05-13T02:33:20.596Z,12.60
2018-05-13T02:35:48.735Z,12.60
2018-05-13T02:38:16.973Z,12.60
2018-05-13T02:40:45.111Z,12.60
2018-05-13T02:43:13.384Z,12.50
2018-05-13T02:45:41.646Z,12.50
2018-05-13T02:48:09.767Z,12.50
2018-05-13T02:50:37.868Z,12.50
2018-05-13T02:53:06.081Z,12.40
2018-05-13T02:55:34.199Z,12.40
2018-05-13T02:58:02.301Z,12.40
2018-05-13T03:00:30.397Z,12.40
2018-05-13T03:02:58.519Z,12.30
2018-05-13T03:05:26.627Z,12.30
2018-05-13T03:07:54.739Z,12.30
2018-05-13T03:10:23.255Z,12.30
2018-05-13T03:12:51.359Z,12.30
2018-05-13T03:15:19.455Z,12.30
2018-05-13T03:17:47.569Z,12.30
2018-05-13T03:20:15.687Z,12.30
2018-05-13T03:22:44.577Z,12.30
2018-05-13T03:25:13.399Z,12.30
2018-05-13T03:27:41.507Z,12.20
2018-05-13T03:30:09.660Z,12.30
2018-05-13T03:32:37.766Z,12.20
2018-05-13T03:35:05.866Z,12.30
2018-05-13T03:37:33.964Z,12.20
2018-05-13T03:40:02.136Z,12.30
2018-05-13T03:42:30.372Z,12.30
2018-05-13T03:44:59.038Z,12.40
2018-05-13T03:47:27.127Z,12.40
2018-05-13T03:49:55.253Z,12.50
2018-05-13T03:52:23.376Z,12.50
2018-05-13T03:54:51.534Z,12.50
2018-05-13T03:57:19.712Z,12.50
2018-05-13T03:59:47.834Z,12.50
2018-05-13T04:02:15.946Z,12.60
2018-05-13T04:04:44.045Z,12.50
2018-05-13T04:07:12.171Z,12.60
2018-05-13T04:09:57.863Z,12.60
2018-05-13T04:12:43.571Z,12.60
2018-05-13T04:15:27.468Z,12.60
2018-05-13T04:17:55.612Z,12.60
2018-05-13T04:20:24.247Z,12.70
2018-05-13T04:22:52.375Z,12.70
2018-05-13T04:25:20.546Z,12.70
2018-05-13T04:27:48.682Z,12.80
2018-05-13T04:30:16.837Z,12.90
2018-05-13T04:32:44.926Z,12.90
2018-05-13T04:35:13.035Z,13.00
2018-05-13T04:37:41.129Z,13.00
2018-05-13T04:40:09.241Z,13.10
2018-05-13T04:42:37.345Z,13.10
2018-05-13T04:45:05.495Z,13.10
2018-05-13T04:47:33.619Z,13.20
2018-05-13T04:50:01.740Z,13.30
2018-05-13T04:52:29.835Z,13.30
2018-05-13T04:54:57.991Z,13.40
2018-05-13T04:57:26.161Z,13.40
2018-05-13T04:59:54.263Z,13.50
2018-05-13T05:02:22.359Z,13.60
2018-05-13T05:04:51.027Z,13.60
2018-05-13T05:07:19.143Z,13.70
2018-05-13T05:09:47.291Z,13.80
2018-05-13T05:12:15.400Z,13.80
2018-05-13T05:14:43.531Z,13.90
2018-05-13T05:17:12.333Z,14.00
2018-05-13T05:19:40.500Z,14.10
2018-05-13T05:22:08.624Z,14.10
2018-05-13T05:24:36.742Z,14.20
2018-05-13T05:27:04.860Z,14.30
2018-05-13T05:29:32.977Z,14.40
2018-05-13T05:32:01.110Z,14.50
2018-05-13T05:34:29.296Z,14.60
2018-05-13T05:36:58.228Z,14.70
2018-05-13T05:39:27.104Z,14.80
2018-05-13T05:41:55.238Z,14.80
2018-05-13T05:44:23.356Z,14.90
2018-05-13T05:46:51.532Z,15.00
2018-05-13T05:49:19.704Z,15.10
2018-05-13T05:51:47.917Z,15.20
2018-05-13T05:54:16.152Z,15.40
2018-05-13T05:56:45.042Z,15.60
2018-05-13T05:59:13.137Z,15.60
2018-05-13T06:01:41.247Z,15.70
2018-05-13T06:04:09.350Z,15.80
2018-05-13T06:06:37.436Z,15.90
2018-05-13T06:09:06.491Z,16.10
2018-05-13T06:11:34.597Z,16.20
2018-05-13T06:14:02.775Z,16.30
2018-05-13T06:16:32.363Z,16.60
2018-05-13T06:19:00.621Z,16.50
2018-05-13T06:21:29.183Z,16.70
2018-05-13T06:23:57.301Z,16.90
2018-05-13T06:26:26.283Z,17.10
2018-05-13T06:28:54.419Z,17.10
2018-05-13T06:31:22.528Z,17.30
2018-05-13T06:33:51.281Z,17.40
2018-05-13T06:36:19.449Z,17.60
2018-05-13T06:38:47.631Z,17.70
2018-05-13T06:41:15.825Z,17.80
2018-05-13T06:43:43.980Z,17.90
2018-05-13T06:46:12.108Z,17.90
2018-05-13T06:48:40.254Z,18.10
2018-05-13T06:51:08.978Z,18.10
2018-05-13T06:53:37.105Z,18.20
2018-05-13T06:56:05.236Z,18.30
2018-05-13T06:58:33.748Z,18.40
2018-05-13T07:01:01.840Z,18.50
2018-05-13T07:03:32.501Z,18.50
2018-05-13T07:06:00.618Z,18.60
2018-05-13T07:08:28.745Z,18.70
2018-05-13T07:10:57.636Z,18.80
2018-05-13T07:13:26.516Z,18.90
2018-05-13T07:15:54.613Z,18.80
2018-05-13T07:18:22.724Z,18.90
2018-05-13T07:20:51.498Z,19.00
2018-05-13T07:23:19.603Z,19.10
2018-05-13T07:25:47.767Z,19.10
2018-05-13T07:28:15.868Z,19.10
2018-05-13T07:30:43.973Z,19.20
2018-05-13T07:33:12.090Z,19.30
2018-05-13T07:35:40.198Z,19.30
2018-05-13T07:38:11.241Z,19.40
2018-05-13T07:40:39.426Z,19.40
2018-05-13T07:43:11.188Z,19.50
2018-05-13T07:45:39.318Z,19.50
2018-05-13T07:48:07.435Z,19.60
2018-05-13T07:50:35.570Z,19.60
2018-05-13T07:53:05.082Z,19.70
2018-05-13T07:55:33.960Z,19.80
2018-05-13T07:58:02.382Z,19.80
2018-05-13T08:00:30.486Z,19.80
2018-05-13T08:02:58.607Z,19.90
2018-05-13T08:05:26.730Z,19.90
2018-05-13T08:07:54.847Z,20.00
2018-05-13T08:10:22.956Z,20.00
2018-05-13T08:12:51.524Z,20.10
2018-05-13T08:15:19.644Z,20.10
2018-05-13T08:17:49.156Z,20.20
2018-05-13T08:20:17.488Z,20.20
2018-05-13T08:22:45.595Z,20.30
2018-05-13T08:25:14.054Z,20.30
2018-05-13T08:27:42.168Z,20.40
2018-05-13T08:30:11.001Z,20.40
2018-05-13T08:32:39.118Z,20.50
2018-05-13T08:35:07.244Z,20.60
2018-05-13T08:37:39.680Z,20.70
2018-05-13T08:40:08.287Z,20.70
2018-05-13T08:42:36.433Z,20.80
2018-05-13T08:45:04.867Z,20.80
2018-05-13T08:47:32.995Z,20.90
2018-05-13T08:50:01.161Z,21.00
2018-05-13T08:52:29.410Z,21.10
2018-05-13T08:54:57.682Z,21.10
2018-05-13T08:57:25.818Z,21.20
2018-05-13T08:59:53.958Z,21.30
2018-05-13T09:02:22.108Z,21.40
2018-05-13T09:04:50.200Z,21.50
2018-05-13T09:07:18.322Z,21.60
2018-05-13T09:09:46.424Z,21.80
2018-05-13T09:12:18.640Z,21.90
2018-05-13T09:14:47.601Z,21.90
2018-05-13T09:17:15.710Z,22.00
2018-05-13T09:19:43.894Z,22.00
2018-05-13T09:22:12.526Z,22.10
2018-05-13T09:24:40.710Z,22.20
2018-05-13T09:27:08.814Z,22.30
2018-05-13T09:29:37.477Z,22.40
2018-05-13T09:32:06.363Z,22.60
2018-05-13T09:34:34.575Z,22.60
2018-05-13T09:37:02.827Z,22.80
2018-05-13T09:39:31.076Z,22.90
2018-05-13T09:41:59.265Z,23.10
2018-05-13T09:44:27.516Z,23.10
2018-05-13T09:46:55.655Z,23.30
2018-05-13T09:49:23.762Z,23.40
2018-05-13T09:51:51.880Z,23.50
2018-05-13T09:54:19.989Z,23.60
2018-05-13T09:56:48.132Z,23.70
2018-05-13T09:59:16.287Z,23.80
2018-05-13T10:01:44.400Z,23.90
2018-05-13T10:04:12.701Z,24.00
2018-05-13T10:06:40.706Z,24.20
2018-05-13T10:09:08.804Z,24.30
2018-05-13T10:11:36.979Z,24.50
2018-05-13T10:14:05.095Z,24.60
2018-05-13T10:16:33.349Z,24.80
2018-05-13T10:19:01.421Z,25.00
2018-05-13T10:21:29.536Z,25.10
2018-05-13T10:23:57.649Z,25.20
2018-05-13T10:26:25.883Z,25.20
2018-05-13T10:28:54.002Z,25.30
2018-05-13T10:31:22.092Z,25.40
2018-05-13T10:33:50.971Z,26.00
2018-05-13T10:36:19.102Z,26.00
2018-05-13T10:38:47.196Z,26.40
2018-05-13T10:41:15.302Z,26.80
2018-05-13T10:43:43.400Z,27.30
2018-05-13T10:46:11.547Z,27.70
2018-05-13T10:48:39.665Z,28.10
2018-05-13T10:51:07.766Z,28.40
2018-05-13T10:53:35.886Z,28.70
2018-05-13T10:56:04.016Z,28.90
2018-05-13T10:58:32.132Z,29.20
2018-05-13T11:01:00.226Z,29.50
2018-05-13T11:03:28.344Z,29.80
2018-05-13T11:05:56.448Z,30.10
2018-05-13T11:08:24.575Z,30.50
2018-05-13T11:10:52.670Z,30.90
2018-05-13T11:13:20.791Z,31.30
2018-05-13T11:15:48.894Z,31.70
2018-05-13T11:18:17.187Z,32.00
2018-05-13T11:20:45.308Z,32.40
2018-05-13T11:23:13.445Z,32.70
2018-05-13T11:25:41.576Z,32.90
2018-05-13T11:28:09.721Z,32.90
2018-05-13T11:30:37.836Z,33.00
2018-05-13T11:33:05.993Z,33.20
2018-05-13T11:35:34.107Z,33.40
2018-05-13T11:38:02.202Z,33.50
2018-05-13T11:40:30.348Z,33.60
2018-05-13T11:42:58.449Z,33.70
2018-05-13T11:45:26.560Z,33.90
2018-05-13T11:47:54.665Z,34.10
2018-05-13T11:50:22.795Z,34.30
2018-05-13T11:52:50.888Z,34.50
2018-05-13T11:55:19.014Z,34.80
2018-05-13T11:57:47.109Z,35.00
2018-05-13T12:00:15.227Z,35.20
2018-05-13T12:02:43.354Z,35.40
2018-05-13T12:05:11.445Z,35.40
2018-05-13T12:07:39.570Z,35.50
2018-05-13T12:10:07.708Z,35.40
2018-05-13T12:12:35.816Z,35.40
2018-05-13T12:15:03.995Z,35.50
2018-05-13T12:17:32.166Z,35.60
2018-05-13T12:20:00.411Z,35.70
2018-05-13T12:22:28.570Z,35.90
2018-05-13T12:24:56.798Z,36.10
2018-05-13T12:27:24.936Z,36.30
2018-05-13T12:29:53.037Z,36.60
2018-05-13T12:32:21.889Z,37.40
2018-05-13T12:34:50.009Z,37.30
2018-05-13T12:37:18.119Z,38.10
2018-05-13T12:39:46.314Z,38.90
2018-05-13T12:42:14.501Z,39.70
2018-05-13T12:44:42.744Z,40.40
2018-05-13T12:47:10.841Z,40.90
2018-05-13T12:49:38.967Z,41.20
2018-05-13T12:52:07.073Z,41.20
2018-05-13T12:54:35.166Z,41.00
2018-05-13T12:57:03.283Z,40.80
2018-05-13T12:59:31.375Z,40.70
2018-05-13T13:01:59.525Z,40.40
2018-05-13T13:04:27.763Z,40.20
2018-05-13T13:06:55.899Z,40.00
2018-05-13T13:09:24.078Z,39.80
2018-05-13T13:11:52.163Z,39.70
2018-05-13T13:14:20.997Z,39.60
2018-05-13T13:16:49.103Z,39.70
2018-05-13T13:19:17.249Z,39.70
2018-05-13T13:21:45.478Z,39.60
2018-05-13T13:24:13.818Z,39.60
2018-05-13T13:26:42.035Z,39.50
2018-05-13T13:29:10.202Z,39.60
2018-05-13T13:31:38.340Z,39.70
2018-05-13T13:34:06.453Z,39.90
2018-05-13T13:36:34.574Z,40.00
2018-05-13T13:39:02.700Z,40.30
2018-05-13T13:41:30.789Z,40.50
2018-05-13T13:44:02.875Z,40.70
2018-05-13T13:46:30.992Z,40.80
2018-05-13T13:48:59.147Z,41.10
2018-05-13T13:51:27.358Z,41.30
2018-05-13T13:53:55.606Z,41.50
2018-05-13T13:56:23.879Z,41.70
2018-05-13T13:58:52.019Z,42.00
2018-05-13T14:01:20.126Z,42.30
2018-05-13T14:03:48.725Z,42.40
2018-05-13T14:06:16.919Z,42.10
2018-05-13T14:08:45.095Z,41.70
2018-05-13T14:11:13.367Z,41.10
2018-05-13T14:13:41.863Z,40.60
2018-05-13T14:16:10.790Z,39.30
2018-05-13T14:18:38.909Z,39.30
2018-05-13T14:21:07.465Z,38.70
2018-05-13T14:23:35.585Z,38.70
2018-05-13T14:26:03.849Z,39.30
2018-05-13T14:28:32.070Z,40.20
2018-05-13T14:31:00.262Z,41.30
2018-05-13T14:33:28.437Z,42.50
2018-05-13T14:35:56.532Z,43.40
2018-05-13T14:38:25.167Z,43.50
2018-05-13T14:40:53.407Z,42.90
2018-05-13T14:43:21.566Z,42.40
2018-05-13T14:45:49.734Z,41.60
2018-05-13T14:48:18.065Z,40.80
2018-05-13T14:50:46.214Z,39.90
2018-05-13T14:53:14.325Z,39.10
2018-05-13T14:55:42.808Z,38.30
2018-05-13T14:58:10.986Z,37.50
2018-05-13T15:00:39.186Z,36.80
2018-05-13T15:03:07.283Z,36.10
2018-05-13T15:05:35.400Z,35.50
2018-05-13T15:08:04.114Z,34.90
2018-05-13T15:10:32.281Z,34.30
2018-05-13T15:13:00.401Z,33.80
2018-05-13T15:15:28.544Z,33.30
2018-05-13T15:17:56.658Z,32.90
2018-05-13T15:20:25.529Z,32.10
2018-05-13T15:22:53.646Z,32.10
2018-05-13T15:25:21.756Z,31.70
2018-05-13T15:27:49.862Z,31.10
2018-05-13T15:30:17.971Z,30.40
2018-05-13T15:32:46.099Z,29.50
2018-05-13T15:35:14.199Z,28.70
2018-05-13T15:37:42.324Z,27.90
2018-05-13T15:40:10.413Z,27.20
2018-05-13T15:42:38.589Z,26.50
2018-05-13T15:45:06.863Z,25.80
2018-05-13T15:47:35.383Z,24.90
2018-05-13T15:50:03.549Z,23.80
2018-05-13T15:52:31.675Z,22.60
2018-05-13T15:55:00.840Z,20.50
2018-05-13T15:57:29.700Z,19.70
2018-05-13T15:59:57.831Z,19.60
2018-05-13T16:02:26.018Z,19.00
2018-05-13T16:04:54.232Z,18.50
2018-05-13T16:07:22.409Z,18.20
2018-05-13T16:09:50.583Z,17.90
2018-05-13T16:12:18.820Z,17.70
2018-05-13T16:14:46.934Z,17.60
2018-05-13T16:17:15.118Z,17.60
2018-05-13T16:19:47.173Z,17.60
2018-05-13T16:22:15.335Z,17.60
2018-05-13T16:24:43.554Z,17.60
2018-05-13T16:27:11.815Z,17.60
2018-05-13T16:29:40.072Z,17.60
2018-05-13T16:32:08.323Z,17.60
2018-05-13T16:34:36.498Z,17.70
2018-05-13T16:37:04.763Z,17.90
2018-05-13T16:39:33.696Z,18.20
2018-05-13T16:42:01.825Z,18.20
2018-05-13T16:44:29.964Z,18.50
2018-05-13T16:46:58.074Z,18.90
2018-05-13T16:49:27.771Z,20.00
2018-05-13T16:51:55.907Z,20.00
2018-05-13T16:54:24.031Z,20.50
2018-05-13T16:56:52.157Z,20.90
2018-05-13T16:59:20.268Z,21.40
2018-05-13T17:01:49.171Z,21.90
2018-05-13T17:04:18.060Z,21.80
2018-05-13T17:06:46.211Z,21.80
2018-05-13T17:09:14.365Z,21.70
2018-05-13T17:11:42.485Z,21.60
2018-05-13T17:14:10.640Z,21.40
2018-05-13T17:16:38.760Z,21.30
2018-05-13T17:19:06.965Z,21.10
2018-05-13T17:21:35.103Z,20.90
2018-05-13T17:24:03.232Z,20.80
2018-05-13T17:26:32.114Z,20.60
2018-05-13T17:29:00.977Z,20.50
2018-05-13T17:31:29.154Z,20.50
2018-05-13T17:33:57.279Z,20.50
2018-05-13T17:36:25.753Z,20.50
2018-05-13T17:38:53.870Z,20.50
2018-05-13T17:41:22.787Z,20.50
2018-05-13T17:43:50.978Z,20.50
2018-05-13T17:46:24.199Z,20.40
2018-05-13T17:48:52.733Z,20.40
2018-05-13T17:51:20.871Z,20.30
2018-05-13T17:53:49.019Z,20.10
2018-05-13T17:56:17.139Z,19.90
2018-05-13T17:58:45.265Z,19.60
2018-05-13T18:01:13.388Z,19.30
2018-05-13T18:03:41.493Z,18.90
2018-05-13T18:06:09.631Z,18.60
2018-05-13T18:08:37.779Z,18.30
2018-05-13T18:11:06.171Z,18.10
2018-05-13T18:13:34.345Z,17.80
2018-05-13T18:16:02.525Z,17.60
2018-05-13T18:18:30.756Z,17.50
2018-05-13T18:20:58.892Z,17.30
2018-05-13T18:23:27.074Z,17.20
2018-05-13T18:25:55.266Z,17.00
2018-05-13T18:28:23.497Z,16.90
2018-05-13T18:30:51.654Z,16.80
2018-05-13T18:33:19.898Z,16.70
2018-05-13T18:35:48.093Z,16.60
2018-05-13T18:38:16.238Z,16.60
2018-05-13T18:40:44.340Z,16.50
2018-05-13T18:43:12.460Z,16.40
2018-05-13T18:45:40.604Z,16.40
2018-05-13T18:48:08.761Z,16.40
2018-05-13T18:50:36.888Z,16.40
2018-05-13T18:53:04.994Z,16.40
2018-05-13T18:55:33.124Z,16.40
2018-05-13T18:58:01.853Z,16.40
2018-05-13T19:00:29.981Z,16.40
2018-05-13T19:02:58.155Z,16.50
2018-05-13T19:05:26.317Z,16.50
2018-05-13T19:07:58.642Z,16.50
2018-05-13T19:10:26.766Z,16.50
2018-05-13T19:12:55.712Z,16.50
2018-05-13T19:15:24.307Z,16.50
2018-05-13T19:17:52.808Z,16.40
2018-05-13T19:20:20.907Z,16.40
2018-05-13T19:22:49.797Z,16.40
2018-05-13T19:25:17.917Z,16.40
2018-05-13T19:40:41.712Z,16.40
2018-05-13T19:43:09.847Z,16.00
2018-05-13T19:45:37.967Z,16.00
2018-05-13T19:48:06.076Z,16.00
2018-05-13T19:50:34.222Z,16.10
2018-05-13T19:53:02.333Z,16.10
2018-05-13T19:55:30.471Z,16.20
2018-05-13T19:57:58.573Z,16.30
2018-05-13T20:00:27.377Z,16.30
2018-05-13T20:02:55.531Z,16.30
2018-05-13T20:05:24.400Z,16.40
2018-05-13T20:07:52.626Z,16.30
2018-05-13T20:10:20.873Z,16.40
2018-05-13T20:12:49.126Z,16.40
2018-05-13T20:15:17.395Z,16.50
2018-05-13T20:17:45.584Z,16.50
2018-05-13T20:20:14.463Z,16.50
2018-05-13T20:25:52.802Z,16.50
2018-05-13T20:28:21.692Z,16.50
2018-05-13T20:30:50.636Z,16.50
2018-05-13T20:33:18.786Z,16.50
2018-05-13T20:35:47.031Z,16.50
2018-05-13T20:38:15.568Z,16.50
2018-05-13T20:40:43.723Z,16.50
2018-05-13T20:43:11.841Z,16.50
2018-05-13T20:45:41.473Z,16.50
2018-05-13T20:48:09.581Z,16.50
2018-05-13T20:50:37.713Z,16.50
2018-05-13T20:53:05.887Z,16.50
2018-05-13T20:55:34.911Z,16.40
2018-05-13T20:58:10.796Z,16.40
2018-05-13T21:00:39.072Z,16.40
2018-05-13T21:03:07.224Z,16.40
2018-05-13T21:05:35.393Z,16.40
2018-05-13T21:08:03.528Z,16.40
2018-05-13T21:10:32.528Z,16.40
2018-05-13T21:13:00.710Z,16.40
2018-05-13T21:15:31.995Z,16.40
2018-05-13T21:18:00.154Z,16.40
2018-05-13T21:20:28.287Z,16.40
2018-05-13T21:22:56.420Z,16.40
2018-05-13T21:25:24.698Z,16.30
2018-05-13T21:27:56.776Z,16.30
2018-05-13T21:30:24.912Z,16.30
2018-05-13T21:32:53.058Z,16.30
2018-05-13T21:35:21.236Z,16.30
2018-05-13T21:37:49.357Z,16.30
2018-05-13T21:40:17.486Z,16.20
2018-05-13T21:42:45.602Z,16.30
2018-05-13T21:45:14.020Z,16.20
2018-05-13T21:47:42.134Z,16.20
2018-05-13T21:50:10.287Z,16.30
2018-05-13T21:52:39.200Z,16.30
2018-05-13T21:55:07.348Z,16.30
2018-05-13T21:57:36.029Z,16.30
2018-05-13T22:00:04.184Z,16.30
2018-05-13T22:02:32.475Z,16.30
2018-05-13T22:05:00.651Z,16.30
2018-05-13T22:07:28.823Z,16.30
2018-05-13T22:09:56.926Z,16.30
2018-05-13T22:12:25.077Z,16.30
2018-05-13T22:14:53.198Z,16.30
2018-05-13T22:17:21.356Z,16.30
2018-05-13T22:19:50.242Z,16.40
2018-05-13T22:22:18.660Z,16.30
2018-05-13T22:24:46.805Z,16.30
2018-05-13T22:27:14.942Z,16.20
2018-05-13T22:29:43.142Z,16.20
2018-05-13T22:32:11.286Z,16.10
2018-05-13T22:34:39.427Z,16.10
2018-05-13T22:37:08.641Z,16.00
2018-05-13T22:39:36.725Z,16.00
2018-05-13T22:42:04.843Z,15.90
2018-05-13T22:44:32.967Z,15.90
2018-05-13T22:47:01.074Z,15.90
2018-05-13T22:49:29.275Z,15.80
2018-05-13T22:51:57.430Z,15.80
2018-05-13T22:54:27.082Z,15.80
2018-05-13T22:56:55.216Z,15.70
2018-05-13T22:59:23.340Z,15.70
2018-05-13T23:01:52.332Z,15.60
2018-05-13T23:04:20.775Z,15.60
2018-05-13T23:06:53.074Z,15.60
2018-05-13T23:09:21.241Z,15.50
2018-05-13T23:11:49.368Z,15.50
2018-05-13T23:14:17.830Z,15.50
2018-05-13T23:16:45.934Z,15.40
2018-05-13T23:19:14.840Z,15.40
2018-05-13T23:21:43.793Z,15.40
2018-05-13T23:24:11.935Z,15.30
2018-05-13T23:26:44.690Z,15.30
2018-05-13T23:29:12.855Z,15.30
2018-05-13T23:31:41.037Z,15.30
2018-05-13T23:34:09.283Z,15.30
2018-05-13T23:36:37.537Z,15.30
2018-05-13T23:39:06.484Z,15.20
2018-05-13T23:41:34.592Z,15.20
2018-05-13T23:44:02.721Z,15.20
2018-05-13T23:46:34.909Z,15.20
2018-05-13T23:49:03.051Z,15.20
2018-05-13T23:51:31.263Z,15.10
2018-05-13T23:53:59.328Z,15.10
2018-05-13T23:56:27.475Z,15.10
2018-05-13T23:58:55.648Z,15.10
